EW3619 Weather Reports


Display with metric or nautical units.
time (UTC)temp
F
wind
direction
speed
MPH
gust
MPH
rain 1hr
in
rain 24hr
in
rain mn
in
humidity
%
barometer
mb
20200712041601 76 78 1.0 7.0 0.00 0.00 0.00 61 1013.8
20200712040126 77 98 0.0 4.0 0.00 0.00 0.00 60 1013.6
20200712034623 78 117 0.0 7.0 0.00 0.00 0.00 58 1013.5
20200712033150 78 67 2.0 6.0 0.00 0.00 0.00 56 1013.2
20200712031607 79 53 2.0 5.0 0.00 0.00 0.00 53 1013.0
20200712030136 80 74 2.0 6.0 0.00 0.00 0.00 54 1012.8
20200712024640 82 82 1.0 5.0 0.00 0.00 0.00 49 1012.7
20200712023136 83 69 1.0 10.0 0.00 0.00 0.00 43 1012.6
20200712021618 84 26 3.0 11.0 0.00 0.00 0.00 41 1012.4
20200712020122 86 69 4.0 11.0 0.00 0.00 0.00 40 1012.5
20200712014558 89 68 2.0 7.0 0.00 0.00 0.00 24 1012.4
20200712013207 90 77 3.0 8.0 0.00 0.00 0.00 20 1012.3
20200712011717 90 51 2.0 8.0 0.00 0.00 0.00 23 1012.1
20200712010113 91 41 3.0 11.0 0.00 0.00 0.00 16 1012.1
20200712004738 93 74 2.0 8.0 0.00 0.00 0.00 17 1012.2
20200712003138 90 59 2.0 9.0 0.00 0.00 0.00 23 1012.4
20200712001623 89 68 4.0 8.0 0.00 0.00 0.00 31 1012.5
20200712000056 88 103 4.0 10.0 0.00 0.00 0.00 38 1012.9
20200711234724 88 39 6.0 11.0 0.00 0.00 0.00 39 1012.8
20200711233125 89 63 4.0 10.0 0.00 0.00 0.00 32 1013.0
20200711231645 89 60 5.0 11.0 0.00 0.00 0.00 27 1013.0
20200711230119 91 84 4.0 11.0 0.00 0.00 0.00 25 1013.0
20200711224640 92 79 5.0 12.0 0.00 0.00 0.00 25 1013.1
20200711223054 92 109 6.0 12.0 0.00 0.00 0.00 25 1012.8
20200711221603 93 53 4.0 14.0 0.00 0.00 0.00 27 1012.8
20200711220101 94 69 5.0 12.0 0.00 0.00 0.00 27 1012.8
20200711214613 95 78 4.0 12.0 0.00 0.00 0.00 26 1013.0
20200711213034 94 92 3.0 11.0 0.00 0.00 0.00 30 1013.1
20200711211554 94 80 4.0 11.0 0.00 0.00 0.00 30 1013.1
20200711210048 92 47 3.0 10.0 0.00 0.00 0.00 34 1013.2
20200711204650 93 17 4.0 14.0 0.00 0.00 0.00 39 1013.4
20200711203053 93 92 3.0 15.0 0.00 0.00 0.00 37 1013.2
20200711201543 94 103 2.0 14.0 0.00 0.00 0.00 35 1013.2
20200711200037 95 63 6.0 17.0 0.00 0.00 0.00 31 1013.2
20200711194551 96 74 5.0 14.0 0.00 0.00 0.00 31 1012.9
20200711193056 97 30 5.0 12.0 0.00 0.00 0.00 32 1013.3
20200711191616 97 31 8.0 15.0 0.00 0.00 0.00 32 1013.6
20200711190029 98 39 7.0 14.0 0.00 0.00 0.00 33 1013.5
20200711184530 98 81 6.0 16.0 0.00 0.00 0.00 31 1013.5
20200711183037 98 126 2.0 9.0 0.00 0.00 0.00 26 1013.4
20200711154556 79 254 1.0 2.0 0.00 0.00 0.00 63 1014.8
20200711153136 78 248 0.0 2.0 0.00 0.00 0.00 67 1014.7
20200711151552 76 282 1.0 3.0 0.00 0.00 0.00 71 1014.9
20200711150132 75 231 1.0 3.0 0.00 0.00 0.00 74 1014.7
20200711144640 75 309 0.0 2.0 0.00 0.00 0.00 75 1014.7
20200711143035 73 250 0.0 1.0 0.00 0.00 0.00 77 1014.8
20200711141551 71 215 0.0 1.0 0.00 0.00 0.00 78 1014.5
20200711140025 69 146 0.0 2.0 0.00 0.00 0.00 81 1014.5
20200711134529 67 150 0.0 2.0 0.00 0.00 0.00 85 1014.7
20200711133017 65 112 0.0 3.0 0.00 0.00 0.00 87 1014.5
20200711131556 64 168 1.0 3.0 0.00 0.00 0.00 89 1014.1
20200711130019 65 170 0.0 2.0 0.00 0.00 0.00 90 1014.5
20200711124538 64 117 0.0 1.0 0.00 0.00 0.00 90 1014.5
20200711123016 64 105 1.0 3.0 0.00 0.00 0.00 90 1014.4
20200711121534 64 153 0.0 2.0 0.00 0.00 0.00 89 1014.1
20200711120010 65 140 0.0 2.0 0.00 0.00 0.00 88 1014.2
20200711114527 65 140 0.0 1.0 0.00 0.00 0.00 88 1014.1
20200711113141 65 140 0.0 1.0 0.00 0.00 0.00 88 1014.1
20200711111505 65 121 0.0 1.0 0.00 0.00 0.00 88 1013.8
20200711110004 65 121 0.0 1.0 0.00 0.00 0.00 86 1013.6
20200711104505 66 113 0.0 2.0 0.00 0.00 0.00 87 1013.6
20200711103008 66 126 0.0 1.0 0.00 0.00 0.00 86 1013.7
20200711094625 67 103 0.0 1.0 0.00 0.00 0.00 84 1013.6
20200711093224 67 103 0.0 1.0 0.00 0.00 0.00 84 1013.5
20200711091622 67 103 0.0 1.0 0.00 0.00 0.00 84 1013.7
20200711090226 67 99 0.0 2.0 0.00 0.00 0.00 83 1013.6
20200711084626 67 128 0.0 2.0 0.00 0.00 0.00 82 1013.7
20200711083124 67 115 0.0 2.0 0.00 0.00 0.00 82 1013.8
20200711081619 67 124 0.0 3.0 0.00 0.00 0.00 81 1013.9
20200711080128 68 120 0.0 1.0 0.00 0.00 0.00 81 1013.8
20200711074607 68 113 0.0 1.0 0.00 0.00 0.00 80 1014.0
20200711073119 69 112 0.0 2.0 0.00 0.00 0.00 80 1013.9
20200711071605 69 144 0.0 3.0 0.00 0.00 0.00 79 1013.7
20200711070040 69 132 0.0 1.0 0.00 0.00 0.00 79 1013.8
20200711064546 70 132 0.0 3.0 0.00 0.00 0.00 78 1013.9
20200711063220 70 107 0.0 0.0 0.00 0.00 0.00 77 1013.9
20200711061641 71 107 0.0 1.0 0.00 0.00 0.00 76 1013.7
20200711060045 71 76 0.0 1.0 0.00 0.00 0.00 77 1013.7
20200711054539 72 76 0.0 1.0 0.00 0.00 0.00 76 1013.9
20200711053138 72 76 0.0 1.0 0.00 0.00 0.00 75 1013.7
20200711051608 73 97 0.0 1.0 0.00 0.00 0.00 74 1014.0
20200711050114 73 98 0.0 1.0 0.00 0.00 0.00 72 1013.8
20200711044538 74 107 0.0 1.0 0.00 0.00 0.00 72 1013.7
20200711043100 74 103 0.0 1.0 0.00 0.00 0.00 70 1013.5